ZWWW/URC METAR and TAF weather

Enter ICAO airport designator
Station Type Date Time Source
ZWWW METAR 2022/05/26 04:30 UTC NOAA

ZWWW 260430Z 32004MPS CAVOK 30/11 Q1012 NOSIG


Station Type Date Time Source
ZWWW Decoded METAR 2022/05/26 04:30 UTC NOAA

Urum-Qi / Diwopu, China (ZWWW) 43-54N 087-28E
May 26, 2022 - 12:30 AM EDT / 2022.05.26 0430 UTC
Wind: from the NW (320 degrees) at 9 MPH (8 KT):0
Visibility: greater than 7 mile(s):0
Temperature: 86 F (30 C)
Dew Point: 51 F (11 C)
Relative Humidity: 30%
Pressure (altimeter): 29.88 in. Hg (1012 hPa)
ob: ZWWW 260430Z 32004MPS CAVOK 30/11 Q1012 NOSIG
cycle: 4

Station Type Date Time Source
ZWWW TAF 2022/05/26 06:03 UTC NOAA

TAF ZWWW 260302Z 2606/2706 30004G10MPS 9999 FEW040CB BKN040 TX32/2609Z TN23/2623Z
TEMPO 2612/2616 -TSRA
BECMG 2621/2622 CAVOK

Example: see airport list